Time;durP1;ratioP1;P1;durP2;ratioP2;P2;SDS_P1;SDS_P2;PMS_P1;PMS_P2;Temp;Humidity;BMP_temperature;BMP_pressure;BME280_temperature;BME280_humidity;BME280_pressure;Samples;Min_cycle;Max_cycle;Signal;HPM_P1;HPM_P2
2022/09/07 00:02:23;;;;;;;4.40;3.55;;;23.40;86.40;;;;;;10556779;28;20043;-61
2022/09/07 00:07:24;;;;;;;4.63;3.90;;;23.30;86.40;;;;;;10558555;28;20149;-61
2022/09/07 00:12:25;;;;;;;5.75;3.83;;;23.30;86.50;;;;;;10559862;28;20027;-61
2022/09/07 00:17:25;;;;;;;4.85;3.92;;;23.30;86.60;;;;;;10552384;28;20041;-62
2022/09/07 00:22:26;;;;;;;5.45;3.97;;;23.20;86.80;;;;;;10556435;28;20020;-61
2022/09/07 00:27:27;;;;;;;8.18;4.50;;;23.20;86.90;;;;;;10557049;28;20040;-61
2022/09/07 00:32:28;;;;;;;6.00;4.13;;;23.20;87.20;;;;;;10542681;28;20380;-61
2022/09/07 00:37:28;;;;;;;5.63;4.50;;;23.10;87.20;;;;;;10557984;28;20023;-61
2022/09/07 00:42:29;;;;;;;6.57;4.75;;;23.10;87.40;;;;;;10561227;28;20036;-62
2022/09/07 00:47:36;;;;;;;8.35;4.93;;;23.10;87.50;;;;;;10560701;28;20126;-61
2022/09/07 00:52:39;;;;;;;8.37;4.73;;;23.10;87.60;;;;;;10562669;28;20049;-61
2022/09/07 00:57:44;;;;;;;6.18;4.22;;;23.00;87.70;;;;;;10564802;28;20032;-61
2022/09/07 01:02:47;;;;;;;6.32;4.70;;;23.00;87.80;;;;;;10567041;28;20031;-62
2022/09/07 01:07:48;;;;;;;6.30;4.32;;;23.00;87.90;;;;;;10564205;28;20088;-62
2022/09/07 01:12:49;;;;;;;5.82;4.18;;;22.90;87.90;;;;;;10563157;28;20112;-65
2022/09/07 01:18:15;;;;;;;4.80;4.00;;;22.90;88.00;;;;;;10559940;28;20032;-62
2022/09/07 01:23:55;;;;;;;6.35;3.63;;;22.90;88.20;;;;;;10563722;28;20068;-61
2022/09/07 01:29:26;;;;;;;4.18;3.15;;;22.90;88.00;;;;;;10566725;28;20075;-62
2022/09/07 01:34:27;;;;;;;4.88;3.22;;;22.80;88.20;;;;;;10567200;28;20027;-61
2022/09/07 01:39:37;;;;;;;3.17;2.75;;;22.70;88.20;;;;;;10564457;28;20016;-63
2022/09/07 01:45:11;;;;;;;3.53;2.47;;;22.70;88.30;;;;;;10560259;28;20723;-66
2022/09/07 01:50:25;;;;;;;4.40;2.67;;;22.60;88.40;;;;;;10535517;28;20055;-62
2022/09/07 01:55:33;;;;;;;4.07;2.70;;;22.60;88.40;;;;;;10561773;28;20092;-62
2022/09/07 02:00:37;;;;;;;2.80;2.40;;;22.60;89.00;;;;;;10564236;28;20488;-63
2022/09/07 02:06:17;;;;;;;3.80;2.10;;;22.60;88.40;;;;;;10563503;28;20020;-62
2022/09/07 02:11:28;;;;;;;3.65;2.03;;;22.50;88.60;;;;;;10550799;28;20050;-62
2022/09/07 02:16:31;;;;;;;2.67;2.03;;;22.50;88.50;;;;;;10561495;28;20091;-62
2022/09/07 02:21:42;;;;;;;2.50;1.85;;;22.50;88.40;;;;;;10559952;28;20022;-62
2022/09/07 02:26:47;;;;;;;2.28;2.08;;;22.40;88.60;;;;;;10560304;28;20577;-63
2022/09/07 02:31:49;;;;;;;3.13;1.92;;;22.40;88.50;;;;;;10565080;28;20008;-62
2022/09/07 02:36:51;;;;;;;2.25;1.85;;;22.40;88.50;;;;;;10557453;28;20028;-63
2022/09/07 02:41:52;;;;;;;3.20;1.77;;;22.40;88.50;;;;;;10565043;28;20032;-62
2022/09/07 02:47:16;;;;;;;2.53;1.80;;;22.30;88.40;;;;;;10557604;28;20047;-63
2022/09/07 02:52:55;;;;;;;3.83;1.77;;;22.30;88.70;;;;;;10562576;28;20430;-61
2022/09/07 02:58:23;;;;;;;3.55;1.85;;;22.30;88.70;;;;;;10560517;28;20020;-62
2022/09/07 03:03:52;;;;;;;3.50;2.05;;;22.30;88.80;;;;;;10560839;28;20575;-61
2022/09/07 03:08:57;;;;;;;2.33;1.50;;;22.30;88.80;;;;;;10538525;28;20062;-62
2022/09/07 03:14:11;;;;;;;2.53;1.45;;;22.20;88.60;;;;;;10562445;28;20102;-61
2022/09/07 03:19:12;;;;;;;2.53;1.50;;;22.20;88.80;;;;;;10557857;28;20249;-61
2022/09/07 03:24:13;;;;;;;2.13;1.60;;;22.20;88.70;;;;;;10538117;28;20496;-61
2022/09/07 03:29:14;;;;;;;2.90;1.35;;;22.20;88.80;;;;;;10562645;28;20063;-61
2022/09/07 03:34:16;;;;;;;1.92;1.70;;;22.10;88.80;;;;;;10561441;28;20072;-62
2022/09/07 03:39:19;;;;;;;2.35;1.55;;;22.10;89.40;;;;;;10561995;28;20027;-62
2022/09/07 03:44:20;;;;;;;2.00;1.63;;;22.10;88.90;;;;;;10556371;28;20452;-62
2022/09/07 03:49:21;;;;;;;2.10;1.67;;;22.10;88.90;;;;;;10557487;28;20036;-61
2022/09/07 03:54:22;;;;;;;1.50;1.40;;;22.00;88.90;;;;;;10556566;28;20620;-62
2022/09/07 03:59:23;;;;;;;1.50;1.20;;;22.00;89.00;;;;;;10557608;28;20412;-62
2022/09/07 04:04:24;;;;;;;2.28;1.58;;;22.00;89.00;;;;;;10557774;28;20020;-61
2022/09/07 04:09:24;;;;;;;2.38;1.58;;;22.00;89.10;;;;;;10543085;28;20135;-62
2022/09/07 04:14:25;;;;;;;2.72;1.67;;;22.00;89.10;;;;;;10559180;28;20598;-62
2022/09/07 04:19:26;;;;;;;3.50;1.60;;;22.00;89.10;;;;;;10567048;28;20066;-62
2022/09/07 04:24:27;;;;;;;3.22;1.60;;;21.90;89.10;;;;;;10562955;28;20030;-61
2022/09/07 04:29:28;;;;;;;2.25;1.40;;;21.90;89.10;;;;;;10568722;28;20040;-61
2022/09/07 04:34:28;;;;;;;1.60;1.50;;;21.90;89.20;;;;;;10569452;28;20022;-62
2022/09/07 04:39:29;;;;;;;2.17;1.60;;;21.90;89.30;;;;;;10568213;28;20031;-63
2022/09/07 04:44:30;;;;;;;2.10;1.45;;;21.90;89.30;;;;;;10563687;28;20268;-62
2022/09/07 04:49:30;;;;;;;2.25;1.60;;;21.90;89.40;;;;;;10563188;28;20032;-61
2022/09/07 04:54:31;;;;;;;2.58;1.60;;;21.90;90.00;;;;;;10562601;28;20020;-62
2022/09/07 04:59:32;;;;;;;2.20;1.60;;;21.90;89.50;;;;;;10562149;28;20043;-66
2022/09/07 05:04:36;;;;;;;2.38;2.10;;;21.80;89.50;;;;;;10566817;28;20531;-62
2022/09/07 05:09:36;;;;;;;2.55;2.00;;;21.80;89.70;;;;;;10569250;28;20039;-64
2022/09/07 05:14:37;;;;;;;2.60;1.80;;;21.80;89.70;;;;;;10566977;28;20545;-62
2022/09/07 05:19:38;;;;;;;2.60;2.03;;;21.80;89.70;;;;;;10561201;28;20456;-62
2022/09/07 05:24:39;;;;;;;3.03;2.15;;;21.80;89.80;;;;;;10564235;28;20119;-63
2022/09/07 05:29:40;;;;;;;4.18;2.03;;;21.70;89.70;;;;;;10565269;28;20047;-61
2022/09/07 05:34:40;;;;;;;4.00;2.00;;;21.80;90.00;;;;;;10566503;28;20026;-63
2022/09/07 05:39:41;;;;;;;2.20;2.00;;;21.80;90.00;;;;;;10546404;28;20483;-61
2022/09/07 05:44:42;;;;;;;3.17;2.20;;;21.80;90.00;;;;;;10566859;28;20032;-62
2022/09/07 05:49:43;;;;;;;3.13;2.67;;;21.70;90.00;;;;;;10561273;28;20399;-61
2022/09/07 05:54:44;;;;;;;4.82;2.30;;;21.70;90.00;;;;;;10562606;28;20527;-60
2022/09/07 05:59:45;;;;;;;3.38;2.78;;;21.70;90.00;;;;;;10564005;28;20044;-60
2022/09/07 06:04:46;;;;;;;3.60;2.72;;;21.70;90.10;;;;;;10519675;28;20082;-61
2022/09/07 06:09:47;;;;;;;3.60;2.95;;;21.70;90.10;;;;;;10500181;28;20122;-60
2022/09/07 06:14:47;;;;;;;4.65;3.00;;;21.70;90.10;;;;;;10474658;28;20032;-60
2022/09/07 06:19:48;;;;;;;5.13;3.75;;;21.70;90.10;;;;;;10471631;28;21392;-60
2022/09/07 06:24:49;;;;;;;5.45;4.05;;;21.60;90.10;;;;;;10477879;28;20511;-60
2022/09/07 06:29:49;;;;;;;4.05;3.65;;;21.70;90.20;;;;;;10478008;28;20047;-60
2022/09/07 06:34:50;;;;;;;4.65;3.75;;;21.70;90.20;;;;;;10480153;28;20555;-60
2022/09/07 06:39:51;;;;;;;5.55;3.53;;;21.70;90.30;;;;;;10477209;28;20157;-60
2022/09/07 06:44:52;;;;;;;6.03;3.80;;;21.70;90.30;;;;;;10485422;28;20066;-60
2022/09/07 06:49:53;;;;;;;4.38;3.90;;;21.60;90.30;;;;;;10481054;28;20048;-59
2022/09/07 06:54:54;;;;;;;4.63;3.70;;;21.60;90.40;;;;;;10471006;28;20034;-63
2022/09/07 06:59:54;;;;;;;4.85;3.47;;;21.60;90.40;;;;;;10475662;28;20061;-62
2022/09/07 07:04:55;;;;;;;5.22;3.70;;;21.60;90.70;;;;;;10474628;28;20051;-59
2022/09/07 07:09:56;;;;;;;4.47;3.53;;;21.60;90.50;;;;;;10471023;28;20039;-61
2022/09/07 07:14:57;;;;;;;4.30;3.50;;;21.50;90.50;;;;;;10476125;28;20016;-60
2022/09/07 07:19:58;;;;;;;5.97;3.58;;;21.50;90.60;;;;;;10476275;28;20877;-60
2022/09/07 07:24:59;;;;;;;4.75;3.22;;;21.50;90.60;;;;;;10469682;28;20102;-60
2022/09/07 07:29:59;;;;;;;5.50;3.42;;;21.50;90.60;;;;;;10472225;28;20257;-61
2022/09/07 07:35:00;;;;;;;4.28;3.58;;;21.50;90.60;;;;;;10467491;28;20125;-60
2022/09/07 07:40:06;;;;;;;4.57;3.03;;;21.60;90.60;;;;;;10477317;28;20023;-61
2022/09/07 07:45:08;;;;;;;4.47;3.50;;;21.60;90.70;;;;;;10474836;28;20193;-60
2022/09/07 07:50:09;;;;;;;4.03;2.83;;;21.60;90.60;;;;;;10474107;28;20126;-60
2022/09/07 07:55:10;;;;;;;5.90;2.90;;;21.60;90.50;;;;;;10476102;28;20032;-61
2022/09/07 08:00:13;;;;;;;4.07;2.72;;;21.60;90.40;;;;;;10478743;28;20019;-60
2022/09/07 08:05:15;;;;;;;4.05;3.00;;;21.70;90.40;;;;;;10480833;28;20481;-60
2022/09/07 08:10:16;;;;;;;4.20;3.25;;;21.60;90.40;;;;;;10478657;28;20562;-65
2022/09/07 08:15:17;;;;;;;4.32;2.83;;;21.70;90.30;;;;;;10476144;28;20207;-60
2022/09/07 08:20:18;;;;;;;4.20;2.60;;;21.70;90.20;;;;;;10474500;28;20965;-61
2022/09/07 08:25:18;;;;;;;4.13;2.42;;;21.80;90.20;;;;;;10471155;28;20403;-61
2022/09/07 08:30:19;;;;;;;3.40;2.65;;;21.80;90.20;;;;;;10476765;28;20277;-61
2022/09/07 08:35:20;;;;;;;2.55;2.25;;;21.80;90.20;;;;;;10481831;28;20032;-61
2022/09/07 08:40:20;;;;;;;3.47;2.35;;;21.80;90.10;;;;;;10475286;28;20074;-61
2022/09/07 08:45:50;;;;;;;2.65;2.30;;;21.80;90.10;;;;;;10475544;28;20416;-61
2022/09/07 08:51:11;;;;;;;2.95;2.40;;;21.80;90.10;;;;;;10464390;28;20500;-60
2022/09/07 08:56:26;;;;;;;3.35;2.53;;;21.80;90.20;;;;;;10473265;28;20523;-67
2022/09/07 09:01:35;;;;;;;5.07;2.50;;;21.90;90.10;;;;;;10477412;28;20082;-61
2022/09/07 09:06:45;;;;;;;3.92;2.72;;;21.80;90.10;;;;;;10480170;28;20039;-60
2022/09/07 09:11:57;;;;;;;5.15;2.60;;;21.80;90.10;;;;;;10484304;28;20103;-63
2022/09/07 09:17:20;;;;;;;4.88;2.45;;;21.90;90.10;;;;;;10486480;28;20455;-61
2022/09/07 09:22:25;;;;;;;2.83;2.25;;;21.90;90.00;;;;;;10489055;28;20031;-66
2022/09/07 09:27:26;;;;;;;4.53;2.58;;;21.90;90.00;;;;;;10484813;28;20148;-60
2022/09/07 09:32:38;;;;;;;3.05;2.28;;;21.90;90.00;;;;;;10491341;28;20136;-60
2022/09/07 09:37:40;;;;;;;3.75;2.40;;;21.90;90.00;;;;;;10484011;28;20063;-60
2022/09/07 09:42:41;;;;;;;2.55;2.15;;;21.90;89.90;;;;;;10487423;28;20131;-61
2022/09/07 09:47:49;;;;;;;3.17;2.67;;;21.90;89.90;;;;;;10483094;28;20100;-61
2022/09/07 09:52:51;;;;;;;2.90;1.98;;;21.90;89.90;;;;;;10483383;28;20023;-62
2022/09/07 09:57:59;;;;;;;2.40;2.20;;;21.90;89.90;;;;;;10477300;28;20069;-60
2022/09/07 10:03:16;;;;;;;2.65;2.30;;;22.00;89.80;;;;;;10470894;28;20054;-61
2022/09/07 10:08:21;;;;;;;2.87;2.07;;;22.00;89.80;;;;;;10477168;28;20096;-61
2022/09/07 10:13:31;;;;;;;2.40;1.92;;;22.00;89.70;;;;;;10472681;28;20022;-61
2022/09/07 10:18:38;;;;;;;3.22;2.10;;;22.00;89.70;;;;;;10486399;27;20058;-62
2022/09/07 10:23:39;;;;;;;2.35;2.05;;;22.00;89.70;;;;;;10483766;28;20043;-61
2022/09/07 10:28:40;;;;;;;2.50;1.92;;;22.10;89.80;;;;;;10479200;28;20670;-61
2022/09/07 10:33:56;;;;;;;2.03;1.70;;;22.20;89.60;;;;;;10473238;28;20113;-62
2022/09/07 10:39:03;;;;;;;2.13;1.83;;;22.20;89.50;;;;;;10462481;28;20434;-60
2022/09/07 10:44:14;;;;;;;2.20;1.90;;;22.30;89.30;;;;;;10466330;28;20101;-63
2022/09/07 10:49:24;;;;;;;2.33;2.05;;;22.40;89.10;;;;;;10460602;28;20043;-62
2022/09/07 10:54:35;;;;;;;4.63;2.38;;;22.50;89.00;;;;;;10481014;28;20039;-63
2022/09/07 10:59:49;;;;;;;2.33;1.80;;;22.50;89.00;;;;;;10468285;28;20148;-61
2022/09/07 11:05:10;;;;;;;2.72;1.83;;;22.60;88.80;;;;;;10472827;28;20023;-62
2022/09/07 11:10:36;;;;;;;2.53;1.98;;;22.60;88.70;;;;;;10471843;28;20090;-62
2022/09/07 11:15:47;;;;;;;2.17;1.80;;;22.70;88.70;;;;;;10478329;28;20042;-62
2022/09/07 11:20:54;;;;;;;5.00;1.98;;;22.70;88.60;;;;;;10480630;28;20023;-63
2022/09/07 11:26:21;;;;;;;2.20;2.00;;;22.80;88.50;;;;;;10475352;28;20156;-67
2022/09/07 11:31:34;;;;;;;1.73;1.63;;;22.80;88.80;;;;;;10480917;28;20550;-62
2022/09/07 11:36:45;;;;;;;2.65;1.70;;;22.80;88.50;;;;;;10477736;28;20065;-62
2022/09/07 11:41:55;;;;;;;2.85;1.80;;;22.90;88.60;;;;;;10477828;28;20030;-62
2022/09/07 11:47:30;;;;;;;2.47;1.70;;;22.90;88.40;;;;;;10443645;28;20066;-63
2022/09/07 11:52:40;;;;;;;2.22;1.83;;;23.00;88.50;;;;;;10449084;28;20035;-62
2022/09/07 11:58:14;;;;;;;2.08;1.88;;;23.00;88.50;;;;;;10462384;28;20484;-68
2022/09/07 12:03:32;;;;;;;3.53;1.90;;;23.00;88.50;;;;;;10463818;28;20147;-62
2022/09/07 12:08:45;;;;;;;2.58;1.55;;;23.10;88.30;;;;;;10467506;28;20028;-64
2022/09/07 12:14:07;;;;;;;2.53;1.58;;;23.10;88.20;;;;;;10441574;28;20946;-63
2022/09/07 12:19:20;;;;;;;1.80;1.60;;;23.20;88.40;;;;;;10462698;28;20051;-63
2022/09/07 12:24:36;;;;;;;3.33;2.00;;;23.10;88.20;;;;;;10475116;28;20241;-63
2022/09/07 12:29:37;;;;;;;1.50;1.40;;;23.10;88.40;;;;;;10460184;28;20113;-62
2022/09/07 12:34:49;;;;;;;2.25;1.52;;;23.10;88.30;;;;;;10459193;28;20031;-62
2022/09/07 12:40:28;;;;;;;2.17;1.48;;;23.20;88.30;;;;;;10467467;28;20031;-62
2022/09/07 12:45:29;;;;;;;1.63;1.52;;;23.20;88.30;;;;;;10463711;28;20031;-63
2022/09/07 12:51:08;;;;;;;2.55;1.60;;;23.30;88.20;;;;;;10467216;28;20036;-63
2022/09/07 12:56:18;;;;;;;2.15;1.58;;;23.30;88.30;;;;;;10470402;28;20504;-63
2022/09/07 13:01:53;;;;;;;1.60;1.45;;;23.30;88.30;;;;;;10479637;28;20036;-62
2022/09/07 13:07:32;;;;;;;1.42;1.33;;;23.30;88.40;;;;;;10482459;28;20039;-63
2022/09/07 13:12:45;;;;;;;1.40;1.30;;;23.40;88.50;;;;;;10473661;28;20035;-63
2022/09/07 13:17:54;;;;;;;1.73;1.42;;;23.40;88.30;;;;;;10484131;28;20047;-62
2022/09/07 13:23:07;;;;;;;3.10;1.60;;;23.40;88.30;;;;;;10460592;28;20962;-64
2022/09/07 13:28:27;;;;;;;2.38;1.45;;;23.40;88.30;;;;;;10480473;28;20074;-62
2022/09/07 13:33:28;;;;;;;2.17;1.70;;;23.50;88.50;;;;;;10479021;28;20138;-63
2022/09/07 13:38:31;;;;;;;3.47;1.70;;;23.50;88.40;;;;;;10484059;28;20069;-64
2022/09/07 13:43:34;;;;;;;1.35;1.25;;;23.60;88.30;;;;;;10468506;28;20028;-62
2022/09/07 13:49:33;;;;;;;2.97;1.70;;;23.60;88.40;;;;;;10469722;28;20315;-66
2022/09/07 13:54:52;;;;;;;2.38;1.75;;;23.60;88.60;;;;;;10400288;28;20042;-62
2022/09/07 13:59:55;;;;;;;1.58;1.40;;;23.60;88.70;;;;;;10477884;28;20482;-63
2022/09/07 14:04:59;;;;;;;3.20;1.60;;;23.60;88.50;;;;;;10480553;28;20023;-62
2022/09/07 14:10:20;;;;;;;2.92;1.45;;;23.70;88.40;;;;;;10480499;28;20122;-62
2022/09/07 14:15:28;;;;;;;1.70;1.60;;;23.80;88.10;;;;;;10475869;28;20028;-69
2022/09/07 14:20:29;;;;;;;2.00;1.40;;;23.80;88.00;;;;;;10474612;28;20035;-64
2022/09/07 14:25:30;;;;;;;3.30;1.80;;;23.80;88.10;;;;;;10475340;28;20802;-62
2022/09/07 14:30:32;;;;;;;3.17;1.50;;;23.80;88.20;;;;;;10480454;27;20039;-62
2022/09/07 14:35:36;;;;;;;2.75;1.50;;;23.80;88.20;;;;;;10474081;28;20329;-66
2022/09/07 14:40:37;;;;;;;1.90;1.70;;;23.90;88.30;;;;;;10477434;28;20096;-65
2022/09/07 14:45:37;;;;;;;1.92;1.70;;;23.90;88.30;;;;;;10472679;28;20032;-63
2022/09/07 14:50:39;;;;;;;1.90;1.70;;;23.90;88.30;;;;;;10477466;28;20043;-63
2022/09/07 14:55:42;;;;;;;2.50;1.67;;;24.00;88.20;;;;;;10479445;28;20069;-64
2022/09/07 15:00:48;;;;;;;2.70;1.50;;;23.90;87.90;;;;;;10472675;28;20147;-63
2022/09/07 15:05:49;;;;;;;1.70;1.60;;;24.00;88.00;;;;;;10479785;28;20042;-64
2022/09/07 15:11:04;;;;;;;1.98;1.50;;;24.10;88.10;;;;;;10464970;28;20052;-63
2022/09/07 15:16:18;;;;;;;1.50;1.40;;;24.10;88.40;;;;;;10468381;28;20055;-63
2022/09/07 15:21:27;;;;;;;1.77;1.20;;;24.10;88.10;;;;;;10455155;28;20217;-63
2022/09/07 15:26:44;;;;;;;1.75;1.50;;;24.10;87.80;;;;;;10460946;28;20048;-63
2022/09/07 15:31:46;;;;;;;;;;;24.20;88.00;;;;;;10466237;28;20848;-63
2022/09/07 15:36:51;;;;;;;1.60;1.50;;;24.20;88.30;;;;;;10462923;28;19919;-67
2022/09/07 15:41:52;;;;;;;2.30;1.38;;;24.20;87.80;;;;;;10458288;28;20855;-64
2022/09/07 15:46:53;;;;;;;1.60;1.50;;;24.20;87.70;;;;;;10462892;28;20031;-64
2022/09/07 15:51:54;;;;;;;1.40;1.30;;;24.20;87.80;;;;;;10477442;28;20038;-64
2022/09/07 15:56:55;;;;;;;1.75;1.40;;;24.20;88.00;;;;;;10482411;28;20220;-63
2022/09/07 16:01:56;;;;;;;3.20;1.48;;;24.10;88.00;;;;;;10472067;28;20058;-62
2022/09/07 16:06:57;;;;;;;1.70;1.60;;;24.10;88.10;;;;;;10480783;28;20036;-69
2022/09/07 16:11:57;;;;;;;1.73;1.63;;;24.10;88.20;;;;;;10457515;28;20124;-68
2022/09/07 16:16:58;;;;;;;2.08;1.73;;;24.10;88.30;;;;;;10475641;28;20027;-63
2022/09/07 16:21:59;;;;;;;1.83;1.60;;;24.00;88.30;;;;;;10482424;28;21017;-63
2022/09/07 16:27:01;;;;;;;1.63;1.52;;;24.00;89.00;;;;;;10482927;28;20050;-63
2022/09/07 16:32:02;;;;;;;1.50;1.38;;;24.00;88.50;;;;;;10481572;28;20320;-63
2022/09/07 16:37:03;;;;;;;6.72;2.28;;;24.00;88.50;;;;;;10456329;28;21008;-63
2022/09/07 16:42:04;;;;;;;7.10;2.92;;;24.00;88.70;;;;;;10456343;28;20075;-63
2022/09/07 16:47:05;;;;;;;7.22;3.90;;;23.80;89.50;;;;;;10481347;28;20763;-63
2022/09/07 16:52:09;;;;;;;5.55;3.85;;;23.60;90.10;;;;;;10475568;28;20039;-63
2022/09/07 16:57:09;;;;;;;4.78;3.10;;;23.40;90.20;;;;;;10483958;28;20050;-63
2022/09/07 17:02:17;;;;;;;6.13;3.65;;;23.40;90.40;;;;;;10474367;28;20324;-63
2022/09/07 17:07:17;;;;;;;5.00;3.70;;;23.40;90.40;;;;;;10484557;28;21002;-65
2022/09/07 17:12:18;;;;;;;4.85;3.58;;;23.40;90.50;;;;;;10489439;28;20405;-63
2022/09/07 17:17:20;;;;;;;4.95;3.63;;;23.30;90.90;;;;;;10483835;27;20031;-63
2022/09/07 17:22:21;;;;;;;6.03;3.50;;;23.30;90.80;;;;;;10486977;28;20198;-62
2022/09/07 17:27:22;;;;;;;4.88;2.92;;;23.20;91.10;;;;;;10484521;28;20097;-62
2022/09/07 17:32:26;;;;;;;6.18;4.22;;;23.10;91.10;;;;;;10476420;28;20506;-63
2022/09/07 17:37:26;;;;;;;6.15;3.90;;;23.00;91.30;;;;;;10471934;28;20143;-63
2022/09/07 17:42:28;;;;;;;7.43;5.40;;;22.90;91.50;;;;;;10474262;28;20046;-65
2022/09/07 17:47:28;;;;;;;7.25;5.38;;;22.70;91.80;;;;;;10474441;28;20316;-64
2022/09/07 17:52:30;;;;;;;7.10;6.07;;;22.50;92.30;;;;;;10474376;28;20544;-63
2022/09/07 17:57:32;;;;;;;8.05;5.82;;;22.40;92.70;;;;;;10470719;28;20645;-64
2022/09/07 18:02:34;;;;;;;9.63;5.57;;;22.20;93.20;;;;;;10468514;28;20096;-62
2022/09/07 18:07:35;;;;;;;7.60;5.88;;;22.00;93.70;;;;;;10476929;28;20660;-64
2022/09/07 18:12:35;;;;;;;6.55;5.00;;;21.80;94.20;;;;;;10452660;28;20028;-62
2022/09/07 18:17:36;;;;;;;8.10;5.90;;;21.80;94.40;;;;;;10461968;28;20128;-62
2022/09/07 18:22:37;;;;;;;6.82;5.40;;;21.90;94.50;;;;;;10471638;28;20525;-64
2022/09/07 18:27:38;;;;;;;9.88;5.18;;;21.90;94.60;;;;;;10467849;28;20070;-63
2022/09/07 18:32:39;;;;;;;6.97;5.43;;;21.90;94.70;;;;;;10465888;28;20031;-63
2022/09/07 18:37:39;;;;;;;9.20;7.05;;;21.70;94.90;;;;;;10525869;28;20531;-63
2022/09/07 18:42:41;;;;;;;8.10;7.00;;;21.70;95.00;;;;;;10557382;28;20089;-66
2022/09/07 18:47:43;;;;;;;8.80;7.03;;;21.50;95.20;;;;;;10552702;28;20039;-64
2022/09/07 18:52:43;;;;;;;9.93;6.70;;;21.30;95.50;;;;;;10552683;28;20043;-65
2022/09/07 18:57:44;;;;;;;8.60;6.13;;;21.30;95.60;;;;;;10544155;28;20031;-65
2022/09/07 19:02:49;;;;;;;6.40;5.10;;;21.20;95.70;;;;;;10545624;28;20116;-65
2022/09/07 19:07:49;;;;;;;5.95;4.18;;;21.30;95.60;;;;;;10553221;28;20445;-63
2022/09/07 19:12:50;;;;;;;5.18;3.40;;;21.50;95.30;;;;;;10547735;28;20026;-64
2022/09/07 19:17:51;;;;;;;4.63;3.72;;;21.70;95.10;;;;;;10559042;28;20111;-64
2022/09/07 19:22:52;;;;;;;4.22;3.38;;;21.90;94.90;;;;;;10557543;28;20024;-65
2022/09/07 19:27:53;;;;;;;6.13;3.72;;;21.90;94.70;;;;;;10551091;28;20039;-64
2022/09/07 19:32:53;;;;;;;3.13;2.83;;;22.00;94.50;;;;;;10559029;27;20364;-64
2022/09/07 19:37:54;;;;;;;2.83;2.53;;;22.10;94.40;;;;;;10554832;28;20162;-63
2022/09/07 19:42:55;;;;;;;3.33;2.70;;;22.10;94.30;;;;;;10555374;28;20031;-64
2022/09/07 19:47:56;;;;;;;3.47;2.30;;;22.20;94.20;;;;;;10553358;28;20048;-64
2022/09/07 19:52:57;;;;;;;6.07;2.25;;;22.20;94.10;;;;;;10555589;28;20075;-64
2022/09/07 19:57:58;;;;;;;2.70;2.30;;;22.20;94.00;;;;;;10556184;28;20062;-63
2022/09/07 20:02:59;;;;;;;2.33;1.92;;;22.20;93.90;;;;;;10557146;28;20547;-64
2022/09/07 20:07:59;;;;;;;2.97;2.42;;;22.30;93.90;;;;;;10553951;28;20573;-64
2022/09/07 20:13:00;;;;;;;3.58;2.78;;;22.20;93.80;;;;;;10544755;28;20027;-64
2022/09/07 20:18:01;;;;;;;2.05;1.80;;;22.30;93.80;;;;;;10549320;28;20024;-64
2022/09/07 20:23:02;;;;;;;3.28;2.38;;;22.20;93.70;;;;;;10554137;28;20016;-64
2022/09/07 20:28:02;;;;;;;4.95;2.58;;;22.20;93.70;;;;;;10551326;28;20065;-65
2022/09/07 20:33:03;;;;;;;2.60;2.40;;;22.20;93.70;;;;;;10538638;28;20023;-64
2022/09/07 20:38:05;;;;;;;3.33;2.40;;;22.20;93.70;;;;;;10552578;28;20284;-64
2022/09/07 20:43:06;;;;;;;2.47;2.10;;;22.20;93.60;;;;;;10547372;28;20089;-63
2022/09/07 20:48:06;;;;;;;4.32;2.40;;;22.20;93.60;;;;;;10556720;28;20557;-63
2022/09/07 20:53:07;;;;;;;3.35;2.15;;;22.20;93.60;;;;;;10553559;28;20148;-64
2022/09/07 20:58:08;;;;;;;3.58;2.30;;;22.20;93.60;;;;;;10553254;28;20315;-65
2022/09/07 21:03:09;;;;;;;2.65;2.13;;;22.20;93.60;;;;;;10555898;28;20027;-66
2022/09/07 21:08:10;;;;;;;2.72;2.22;;;22.10;93.60;;;;;;10559734;28;20115;-64
2022/09/07 21:13:11;;;;;;;2.83;2.40;;;22.10;93.50;;;;;;10558568;28;20034;-64
2022/09/07 21:18:14;;;;;;;2.80;2.53;;;22.10;93.50;;;;;;10560570;28;20024;-63
2022/09/07 21:23:15;;;;;;;2.78;2.42;;;22.10;93.50;;;;;;10560035;28;20487;-70
2022/09/07 21:28:16;;;;;;;2.40;2.17;;;22.10;93.50;;;;;;10560811;28;20048;-69
2022/09/07 21:33:16;;;;;;;2.50;2.30;;;22.10;93.50;;;;;;10554171;28;20122;-64
2022/09/07 21:38:17;;;;;;;2.42;2.22;;;22.00;93.40;;;;;;10561989;28;20028;-65
2022/09/07 21:43:18;;;;;;;3.03;2.55;;;22.00;93.40;;;;;;10564380;28;20024;-65
2022/09/07 21:48:18;;;;;;;3.45;2.30;;;22.00;93.40;;;;;;10556050;28;20039;-64
2022/09/07 21:53:19;;;;;;;3.70;2.70;;;22.00;93.40;;;;;;10561859;28;20381;-65
2022/09/07 21:58:20;;;;;;;2.60;2.30;;;22.00;93.40;;;;;;10560724;28;20039;-64
2022/09/07 22:03:21;;;;;;;3.67;2.83;;;21.90;93.50;;;;;;10560942;28;20476;-63
2022/09/07 22:08:21;;;;;;;3.08;2.50;;;21.90;93.40;;;;;;10565667;28;20043;-64
2022/09/07 22:13:22;;;;;;;2.85;2.63;;;21.90;93.40;;;;;;10561977;28;20585;-64
2022/09/07 22:18:23;;;;;;;3.22;2.47;;;21.90;93.40;;;;;;10561509;28;20650;-64
2022/09/07 22:23:24;;;;;;;3.47;2.55;;;21.90;93.40;;;;;;10562587;28;20383;-65
2022/09/07 22:28:25;;;;;;;3.13;2.67;;;21.90;93.30;;;;;;10561857;28;20048;-64
2022/09/07 22:33:26;;;;;;;3.08;2.65;;;21.90;93.30;;;;;;10562742;28;20388;-64
2022/09/07 22:38:26;;;;;;;2.83;2.58;;;21.80;93.30;;;;;;10562360;28;20043;-63
2022/09/07 22:43:27;;;;;;;3.30;2.65;;;21.80;93.30;;;;;;10563512;28;20031;-63
2022/09/07 22:48:29;;;;;;;4.28;2.92;;;21.80;93.30;;;;;;10559625;28;20309;-65
2022/09/07 22:53:33;;;;;;;4.50;2.92;;;21.80;93.30;;;;;;10563578;28;20024;-66
2022/09/07 22:58:34;;;;;;;3.88;2.50;;;21.80;93.30;;;;;;10566487;28;20106;-65
2022/09/07 23:03:35;;;;;;;6.55;3.35;;;21.70;93.20;;;;;;10562417;28;20118;-65
2022/09/07 23:08:35;;;;;;;3.17;2.88;;;21.70;93.20;;;;;;10562973;28;20039;-66
2022/09/07 23:13:36;;;;;;;4.50;2.80;;;21.70;93.20;;;;;;10562993;28;20042;-64
2022/09/07 23:18:40;;;;;;;3.70;2.83;;;21.60;93.20;;;;;;10556731;28;20023;-66
2022/09/07 23:23:41;;;;;;;3.88;3.03;;;21.60;93.20;;;;;;10543502;28;20032;-64
2022/09/07 23:28:41;;;;;;;4.00;2.88;;;21.60;93.20;;;;;;10563178;28;20067;-65
2022/09/07 23:33:42;;;;;;;3.25;2.85;;;21.60;93.20;;;;;;10561145;28;20681;-65
2022/09/07 23:38:44;;;;;;;3.28;2.97;;;21.60;93.10;;;;;;10559551;28;20036;-64
2022/09/07 23:43:44;;;;;;;3.15;2.85;;;21.60;93.10;;;;;;10559349;28;20023;-66
2022/09/07 23:48:46;;;;;;;3.58;3.17;;;21.50;93.10;;;;;;10561699;28;20062;-64
2022/09/07 23:53:48;;;;;;;4.38;3.25;;;21.50;93.10;;;;;;10555436;28;20088;-64
2022/09/07 23:58:48;;;;;;;4.40;3.67;;;21.50;93.10;;;;;;10561013;28;20067;-64
